sensor_id;sensor_type;location;lat;lon;timestamp;P1;durP1;ratioP1;P2;durP2;ratioP2
27265;SDS011;14766;51.380;13.762;2024-03-02T00:00:16;28.92;;;18.55;;
27265;SDS011;14766;51.380;13.762;2024-03-02T00:02:44;30.75;;;17.88;;
27265;SDS011;14766;51.380;13.762;2024-03-02T00:05:13;29.23;;;18.80;;
27265;SDS011;14766;51.380;13.762;2024-03-02T00:07:45;26.65;;;18.08;;
27265;SDS011;14766;51.380;13.762;2024-03-02T00:10:22;29.85;;;18.23;;
27265;SDS011;14766;51.380;13.762;2024-03-02T00:12:55;27.60;;;18.35;;
27265;SDS011;14766;51.380;13.762;2024-03-02T00:18:14;28.80;;;19.33;;
27265;SDS011;14766;51.380;13.762;2024-03-02T00:20:45;30.75;;;19.38;;
27265;SDS011;14766;51.380;13.762;2024-03-02T00:23:15;35.50;;;22.40;;
27265;SDS011;14766;51.380;13.762;2024-03-02T00:25:46;40.00;;;22.23;;
27265;SDS011;14766;51.380;13.762;2024-03-02T00:30:57;35.47;;;21.58;;
27265;SDS011;14766;51.380;13.762;2024-03-02T00:33:39;33.80;;;20.48;;
27265;SDS011;14766;51.380;13.762;2024-03-02T00:36:15;33.15;;;20.55;;
27265;SDS011;14766;51.380;13.762;2024-03-02T00:38:53;33.63;;;21.45;;
27265;SDS011;14766;51.380;13.762;2024-03-02T00:43:59;32.72;;;19.98;;
27265;SDS011;14766;51.380;13.762;2024-03-02T00:46:34;31.48;;;19.38;;
27265;SDS011;14766;51.380;13.762;2024-03-02T00:49:03;27.60;;;19.00;;
27265;SDS011;14766;51.380;13.762;2024-03-02T00:51:31;29.85;;;19.35;;
27265;SDS011;14766;51.380;13.762;2024-03-02T00:54:00;31.65;;;19.65;;
27265;SDS011;14766;51.380;13.762;2024-03-02T00:56:31;26.92;;;17.35;;
27265;SDS011;14766;51.380;13.762;2024-03-02T00:58:59;29.90;;;18.00;;
27265;SDS011;14766;51.380;13.762;2024-03-02T01:01:26;29.38;;;18.90;;
27265;SDS011;14766;51.380;13.762;2024-03-02T01:03:53;27.10;;;18.13;;
27265;SDS011;14766;51.380;13.762;2024-03-02T01:06:20;29.05;;;19.05;;
27265;SDS011;14766;51.380;13.762;2024-03-02T01:08:50;26.25;;;17.65;;
27265;SDS011;14766;51.380;13.762;2024-03-02T01:11:19;29.52;;;18.50;;
27265;SDS011;14766;51.380;13.762;2024-03-02T01:13:49;26.50;;;17.35;;
27265;SDS011;14766;51.380;13.762;2024-03-02T01:16:18;32.08;;;18.42;;
27265;SDS011;14766;51.380;13.762;2024-03-02T01:18:45;27.20;;;18.65;;
27265;SDS011;14766;51.380;13.762;2024-03-02T01:21:13;29.85;;;19.48;;
27265;SDS011;14766;51.380;13.762;2024-03-02T01:23:40;31.70;;;19.48;;
27265;SDS011;14766;51.380;13.762;2024-03-02T01:26:07;27.05;;;19.13;;
27265;SDS011;14766;51.380;13.762;2024-03-02T01:28:34;28.38;;;18.50;;
27265;SDS011;14766;51.380;13.762;2024-03-02T01:31:01;30.13;;;19.77;;
27265;SDS011;14766;51.380;13.762;2024-03-02T01:33:31;30.77;;;21.00;;
27265;SDS011;14766;51.380;13.762;2024-03-02T01:35:58;33.78;;;21.15;;
27265;SDS011;14766;51.380;13.762;2024-03-02T01:38:25;33.65;;;22.02;;
27265;SDS011;14766;51.380;13.762;2024-03-02T01:40:53;34.35;;;21.55;;
27265;SDS011;14766;51.380;13.762;2024-03-02T01:43:21;32.67;;;20.65;;
27265;SDS011;14766;51.380;13.762;2024-03-02T01:45:49;29.98;;;20.95;;
27265;SDS011;14766;51.380;13.762;2024-03-02T01:48:16;34.20;;;21.88;;
27265;SDS011;14766;51.380;13.762;2024-03-02T01:50:43;31.63;;;20.33;;
27265;SDS011;14766;51.380;13.762;2024-03-02T01:53:11;31.38;;;20.92;;
27265;SDS011;14766;51.380;13.762;2024-03-02T01:55:38;35.97;;;22.80;;
27265;SDS011;14766;51.380;13.762;2024-03-02T01:58:05;33.22;;;22.17;;
27265;SDS011;14766;51.380;13.762;2024-03-02T02:00:34;34.33;;;22.38;;
27265;SDS011;14766;51.380;13.762;2024-03-02T02:03:03;45.78;;;22.48;;
27265;SDS011;14766;51.380;13.762;2024-03-02T02:05:30;30.58;;;20.42;;
27265;SDS011;14766;51.380;13.762;2024-03-02T02:07:58;32.35;;;21.38;;
27265;SDS011;14766;51.380;13.762;2024-03-02T02:10:25;29.60;;;19.35;;
27265;SDS011;14766;51.380;13.762;2024-03-02T02:12:53;29.02;;;20.48;;
27265;SDS011;14766;51.380;13.762;2024-03-02T02:15:28;31.15;;;20.00;;
27265;SDS011;14766;51.380;13.762;2024-03-02T02:17:56;29.77;;;19.55;;
27265;SDS011;14766;51.380;13.762;2024-03-02T02:20:26;31.45;;;20.13;;
27265;SDS011;14766;51.380;13.762;2024-03-02T02:22:54;31.90;;;21.40;;
27265;SDS011;14766;51.380;13.762;2024-03-02T02:25:32;28.33;;;20.00;;
27265;SDS011;14766;51.380;13.762;2024-03-02T02:27:59;30.67;;;19.95;;
27265;SDS011;14766;51.380;13.762;2024-03-02T02:30:30;30.05;;;20.38;;
27265;SDS011;14766;51.380;13.762;2024-03-02T02:32:58;29.48;;;19.52;;
27265;SDS011;14766;51.380;13.762;2024-03-02T02:35:26;32.20;;;20.55;;
27265;SDS011;14766;51.380;13.762;2024-03-02T02:37:54;33.47;;;20.92;;
27265;SDS011;14766;51.380;13.762;2024-03-02T02:40:22;36.90;;;22.67;;
27265;SDS011;14766;51.380;13.762;2024-03-02T02:42:49;36.08;;;22.65;;
27265;SDS011;14766;51.380;13.762;2024-03-02T02:45:19;33.53;;;21.73;;
27265;SDS011;14766;51.380;13.762;2024-03-02T02:47:46;34.00;;;21.67;;
27265;SDS011;14766;51.380;13.762;2024-03-02T02:50:14;34.20;;;21.60;;
27265;SDS011;14766;51.380;13.762;2024-03-02T02:52:41;35.03;;;22.50;;
27265;SDS011;14766;51.380;13.762;2024-03-02T02:55:09;33.05;;;21.63;;
27265;SDS011;14766;51.380;13.762;2024-03-02T02:57:41;36.42;;;22.70;;
27265;SDS011;14766;51.380;13.762;2024-03-02T03:00:11;30.77;;;20.95;;
27265;SDS011;14766;51.380;13.762;2024-03-02T03:02:47;33.17;;;21.75;;
27265;SDS011;14766;51.380;13.762;2024-03-02T03:05:17;33.80;;;20.98;;
27265;SDS011;14766;51.380;13.762;2024-03-02T03:07:46;31.55;;;21.40;;
27265;SDS011;14766;51.380;13.762;2024-03-02T03:10:15;34.25;;;21.92;;
27265;SDS011;14766;51.380;13.762;2024-03-02T03:12:43;32.88;;;21.92;;
27265;SDS011;14766;51.380;13.762;2024-03-02T03:15:11;35.38;;;23.10;;
27265;SDS011;14766;51.380;13.762;2024-03-02T03:17:39;33.72;;;22.58;;
27265;SDS011;14766;51.380;13.762;2024-03-02T03:20:06;33.50;;;23.27;;
27265;SDS011;14766;51.380;13.762;2024-03-02T03:22:38;32.00;;;22.17;;
27265;SDS011;14766;51.380;13.762;2024-03-02T03:25:05;32.97;;;22.35;;
27265;SDS011;14766;51.380;13.762;2024-03-02T03:27:36;32.22;;;21.52;;
27265;SDS011;14766;51.380;13.762;2024-03-02T03:30:03;31.38;;;21.65;;
27265;SDS011;14766;51.380;13.762;2024-03-02T03:32:33;37.83;;;21.10;;
27265;SDS011;14766;51.380;13.762;2024-03-02T03:35:01;36.20;;;21.80;;
27265;SDS011;14766;51.380;13.762;2024-03-02T03:37:29;35.75;;;22.50;;
27265;SDS011;14766;51.380;13.762;2024-03-02T03:40:02;34.58;;;22.17;;
27265;SDS011;14766;51.380;13.762;2024-03-02T03:42:33;35.90;;;22.30;;
27265;SDS011;14766;51.380;13.762;2024-03-02T03:45:00;35.33;;;22.58;;
27265;SDS011;14766;51.380;13.762;2024-03-02T03:47:27;35.03;;;23.23;;
27265;SDS011;14766;51.380;13.762;2024-03-02T03:49:54;33.85;;;22.13;;
27265;SDS011;14766;51.380;13.762;2024-03-02T03:52:22;34.97;;;22.67;;
27265;SDS011;14766;51.380;13.762;2024-03-02T03:54:49;34.85;;;22.02;;
27265;SDS011;14766;51.380;13.762;2024-03-02T03:57:16;36.75;;;23.77;;
27265;SDS011;14766;51.380;13.762;2024-03-02T03:59:44;32.85;;;21.70;;
27265;SDS011;14766;51.380;13.762;2024-03-02T04:02:11;36.67;;;23.40;;
27265;SDS011;14766;51.380;13.762;2024-03-02T04:04:39;34.97;;;22.38;;
27265;SDS011;14766;51.380;13.762;2024-03-02T04:07:07;36.88;;;23.67;;
27265;SDS011;14766;51.380;13.762;2024-03-02T04:09:34;38.95;;;23.02;;
27265;SDS011;14766;51.380;13.762;2024-03-02T04:12:01;33.38;;;22.02;;
27265;SDS011;14766;51.380;13.762;2024-03-02T04:14:28;35.58;;;22.45;;
27265;SDS011;14766;51.380;13.762;2024-03-02T04:16:55;36.85;;;22.63;;
27265;SDS011;14766;51.380;13.762;2024-03-02T04:19:22;34.25;;;22.23;;
27265;SDS011;14766;51.380;13.762;2024-03-02T04:21:49;31.70;;;21.83;;
27265;SDS011;14766;51.380;13.762;2024-03-02T04:24:16;33.13;;;21.17;;
27265;SDS011;14766;51.380;13.762;2024-03-02T04:26:44;34.00;;;21.90;;
27265;SDS011;14766;51.380;13.762;2024-03-02T04:29:11;34.78;;;21.58;;
27265;SDS011;14766;51.380;13.762;2024-03-02T04:31:38;33.78;;;22.15;;
27265;SDS011;14766;51.380;13.762;2024-03-02T04:34:05;33.72;;;22.10;;
27265;SDS011;14766;51.380;13.762;2024-03-02T04:36:33;34.83;;;23.90;;
27265;SDS011;14766;51.380;13.762;2024-03-02T04:39:00;34.70;;;22.30;;
27265;SDS011;14766;51.380;13.762;2024-03-02T04:41:27;33.65;;;21.42;;
27265;SDS011;14766;51.380;13.762;2024-03-02T04:43:54;33.58;;;22.00;;
27265;SDS011;14766;51.380;13.762;2024-03-02T04:46:21;35.67;;;21.95;;
27265;SDS011;14766;51.380;13.762;2024-03-02T04:48:48;34.30;;;22.42;;
27265;SDS011;14766;51.380;13.762;2024-03-02T04:51:21;38.45;;;22.63;;
27265;SDS011;14766;51.380;13.762;2024-03-02T04:53:49;35.90;;;21.98;;
27265;SDS011;14766;51.380;13.762;2024-03-02T04:56:16;38.63;;;23.02;;
27265;SDS011;14766;51.380;13.762;2024-03-02T04:58:58;37.85;;;22.10;;
27265;SDS011;14766;51.380;13.762;2024-03-02T05:01:25;35.42;;;22.85;;
27265;SDS011;14766;51.380;13.762;2024-03-02T05:03:52;36.83;;;23.17;;
27265;SDS011;14766;51.380;13.762;2024-03-02T05:06:19;35.45;;;22.25;;
27265;SDS011;14766;51.380;13.762;2024-03-02T05:08:47;37.28;;;23.10;;
27265;SDS011;14766;51.380;13.762;2024-03-02T05:11:15;38.17;;;24.92;;
27265;SDS011;14766;51.380;13.762;2024-03-02T05:14:05;35.80;;;23.23;;
27265;SDS011;14766;51.380;13.762;2024-03-02T05:16:33;34.75;;;22.95;;
27265;SDS011;14766;51.380;13.762;2024-03-02T05:19:01;37.55;;;23.77;;
27265;SDS011;14766;51.380;13.762;2024-03-02T05:21:29;33.83;;;22.23;;
27265;SDS011;14766;51.380;13.762;2024-03-02T05:23:56;36.03;;;22.90;;
27265;SDS011;14766;51.380;13.762;2024-03-02T05:26:23;38.58;;;24.95;;
27265;SDS011;14766;51.380;13.762;2024-03-02T05:28:50;32.58;;;22.00;;
27265;SDS011;14766;51.380;13.762;2024-03-02T05:31:18;35.75;;;22.33;;
27265;SDS011;14766;51.380;13.762;2024-03-02T05:33:45;33.25;;;21.60;;
27265;SDS011;14766;51.380;13.762;2024-03-02T05:36:12;32.85;;;21.52;;
27265;SDS011;14766;51.380;13.762;2024-03-02T05:38:39;36.55;;;21.58;;
27265;SDS011;14766;51.380;13.762;2024-03-02T05:41:07;32.00;;;21.92;;
27265;SDS011;14766;51.380;13.762;2024-03-02T05:43:34;33.70;;;21.75;;
27265;SDS011;14766;51.380;13.762;2024-03-02T05:46:02;35.65;;;22.38;;
27265;SDS011;14766;51.380;13.762;2024-03-02T05:48:31;34.45;;;21.98;;
27265;SDS011;14766;51.380;13.762;2024-03-02T05:50:58;35.83;;;22.83;;
27265;SDS011;14766;51.380;13.762;2024-03-02T05:53:25;39.40;;;23.48;;
27265;SDS011;14766;51.380;13.762;2024-03-02T05:55:52;35.30;;;23.15;;
27265;SDS011;14766;51.380;13.762;2024-03-02T05:58:22;32.83;;;21.95;;
27265;SDS011;14766;51.380;13.762;2024-03-02T06:00:51;33.17;;;21.65;;
27265;SDS011;14766;51.380;13.762;2024-03-02T06:03:19;34.05;;;22.10;;
27265;SDS011;14766;51.380;13.762;2024-03-02T06:05:47;35.25;;;21.98;;
27265;SDS011;14766;51.380;13.762;2024-03-02T06:08:15;34.53;;;22.42;;
27265;SDS011;14766;51.380;13.762;2024-03-02T06:10:43;36.08;;;23.08;;
27265;SDS011;14766;51.380;13.762;2024-03-02T06:13:10;33.78;;;22.73;;
27265;SDS011;14766;51.380;13.762;2024-03-02T06:15:37;35.53;;;22.30;;
27265;SDS011;14766;51.380;13.762;2024-03-02T06:18:04;33.38;;;21.83;;
27265;SDS011;14766;51.380;13.762;2024-03-02T06:20:33;36.10;;;23.38;;
27265;SDS011;14766;51.380;13.762;2024-03-02T06:23:03;38.78;;;23.42;;
27265;SDS011;14766;51.380;13.762;2024-03-02T06:25:30;36.47;;;23.55;;
27265;SDS011;14766;51.380;13.762;2024-03-02T06:27:58;39.15;;;23.80;;
27265;SDS011;14766;51.380;13.762;2024-03-02T06:30:25;34.85;;;22.85;;
27265;SDS011;14766;51.380;13.762;2024-03-02T06:32:52;36.25;;;22.92;;
27265;SDS011;14766;51.380;13.762;2024-03-02T06:35:19;35.13;;;21.90;;
27265;SDS011;14766;51.380;13.762;2024-03-02T06:37:46;34.00;;;22.00;;
27265;SDS011;14766;51.380;13.762;2024-03-02T06:40:13;33.78;;;22.42;;
27265;SDS011;14766;51.380;13.762;2024-03-02T06:42:40;36.83;;;23.85;;
27265;SDS011;14766;51.380;13.762;2024-03-02T06:45:07;33.72;;;22.63;;
27265;SDS011;14766;51.380;13.762;2024-03-02T06:47:36;35.95;;;22.52;;
27265;SDS011;14766;51.380;13.762;2024-03-02T06:50:03;41.75;;;26.48;;
27265;SDS011;14766;51.380;13.762;2024-03-02T06:52:31;77.68;;;43.92;;
27265;SDS011;14766;51.380;13.762;2024-03-02T06:54:59;74.90;;;42.47;;
27265;SDS011;14766;51.380;13.762;2024-03-02T06:57:27;62.33;;;36.17;;
27265;SDS011;14766;51.380;13.762;2024-03-02T06:59:54;64.13;;;34.75;;
27265;SDS011;14766;51.380;13.762;2024-03-02T07:02:25;57.70;;;34.10;;
27265;SDS011;14766;51.380;13.762;2024-03-02T07:04:53;53.05;;;31.15;;
27265;SDS011;14766;51.380;13.762;2024-03-02T07:07:20;46.85;;;29.02;;
27265;SDS011;14766;51.380;13.762;2024-03-02T07:09:49;38.80;;;24.63;;
27265;SDS011;14766;51.380;13.762;2024-03-02T07:12:16;40.47;;;23.73;;
27265;SDS011;14766;51.380;13.762;2024-03-02T07:14:43;40.55;;;24.15;;
27265;SDS011;14766;51.380;13.762;2024-03-02T07:17:29;34.22;;;21.38;;
27265;SDS011;14766;51.380;13.762;2024-03-02T07:19:58;34.53;;;22.45;;
27265;SDS011;14766;51.380;13.762;2024-03-02T07:22:25;36.60;;;22.65;;
27265;SDS011;14766;51.380;13.762;2024-03-02T07:24:52;39.65;;;24.33;;
27265;SDS011;14766;51.380;13.762;2024-03-02T07:27:19;39.97;;;25.15;;
27265;SDS011;14766;51.380;13.762;2024-03-02T07:29:46;43.45;;;27.65;;
27265;SDS011;14766;51.380;13.762;2024-03-02T07:32:14;41.92;;;26.92;;
27265;SDS011;14766;51.380;13.762;2024-03-02T07:34:41;47.22;;;28.75;;
27265;SDS011;14766;51.380;13.762;2024-03-02T07:37:08;45.33;;;28.95;;
27265;SDS011;14766;51.380;13.762;2024-03-02T07:39:36;46.83;;;28.48;;
27265;SDS011;14766;51.380;13.762;2024-03-02T07:42:03;46.25;;;28.80;;
27265;SDS011;14766;51.380;13.762;2024-03-02T07:44:31;50.63;;;30.58;;
27265;SDS011;14766;51.380;13.762;2024-03-02T07:46:58;51.10;;;29.90;;
27265;SDS011;14766;51.380;13.762;2024-03-02T07:49:26;50.63;;;31.10;;
27265;SDS011;14766;51.380;13.762;2024-03-02T07:51:53;48.78;;;28.15;;
27265;SDS011;14766;51.380;13.762;2024-03-02T07:54:21;51.47;;;30.15;;
27265;SDS011;14766;51.380;13.762;2024-03-02T07:56:48;47.22;;;28.17;;
27265;SDS011;14766;51.380;13.762;2024-03-02T07:59:16;49.03;;;27.25;;
27265;SDS011;14766;51.380;13.762;2024-03-02T08:01:43;48.58;;;28.70;;
27265;SDS011;14766;51.380;13.762;2024-03-02T08:04:11;49.47;;;29.35;;
27265;SDS011;14766;51.380;13.762;2024-03-02T08:06:38;46.97;;;26.88;;
27265;SDS011;14766;51.380;13.762;2024-03-02T08:09:05;45.28;;;27.35;;
27265;SDS011;14766;51.380;13.762;2024-03-02T08:11:36;46.47;;;28.27;;
27265;SDS011;14766;51.380;13.762;2024-03-02T08:14:06;53.22;;;28.40;;
27265;SDS011;14766;51.380;13.762;2024-03-02T08:16:34;48.42;;;29.25;;
27265;SDS011;14766;51.380;13.762;2024-03-02T08:19:01;46.17;;;27.20;;
27265;SDS011;14766;51.380;13.762;2024-03-02T08:21:30;49.05;;;29.23;;
27265;SDS011;14766;51.380;13.762;2024-03-02T08:23:58;48.30;;;28.85;;
27265;SDS011;14766;51.380;13.762;2024-03-02T08:26:25;45.63;;;28.10;;
27265;SDS011;14766;51.380;13.762;2024-03-02T08:28:56;45.25;;;27.55;;
27265;SDS011;14766;51.380;13.762;2024-03-02T08:31:23;43.30;;;27.00;;
27265;SDS011;14766;51.380;13.762;2024-03-02T08:33:51;46.60;;;27.33;;
27265;SDS011;14766;51.380;13.762;2024-03-02T08:36:19;46.92;;;27.48;;
27265;SDS011;14766;51.380;13.762;2024-03-02T08:38:48;42.20;;;25.08;;
27265;SDS011;14766;51.380;13.762;2024-03-02T08:41:16;44.13;;;25.98;;
27265;SDS011;14766;51.380;13.762;2024-03-02T08:43:43;39.72;;;24.52;;
27265;SDS011;14766;51.380;13.762;2024-03-02T08:46:11;39.85;;;24.42;;
27265;SDS011;14766;51.380;13.762;2024-03-02T08:48:38;37.28;;;24.85;;
27265;SDS011;14766;51.380;13.762;2024-03-02T08:51:06;41.92;;;25.45;;
27265;SDS011;14766;51.380;13.762;2024-03-02T08:53:34;42.65;;;25.33;;
27265;SDS011;14766;51.380;13.762;2024-03-02T08:56:02;41.90;;;25.58;;
27265;SDS011;14766;51.380;13.762;2024-03-02T08:58:32;40.10;;;24.40;;
27265;SDS011;14766;51.380;13.762;2024-03-02T09:00:59;42.03;;;25.00;;
27265;SDS011;14766;51.380;13.762;2024-03-02T09:03:26;44.10;;;26.73;;
27265;SDS011;14766;51.380;13.762;2024-03-02T09:05:53;39.78;;;25.02;;
27265;SDS011;14766;51.380;13.762;2024-03-02T09:08:21;42.58;;;26.20;;
27265;SDS011;14766;51.380;13.762;2024-03-02T09:10:48;42.85;;;26.42;;
27265;SDS011;14766;51.380;13.762;2024-03-02T09:13:15;42.05;;;25.02;;
27265;SDS011;14766;51.380;13.762;2024-03-02T09:15:43;44.90;;;27.13;;
27265;SDS011;14766;51.380;13.762;2024-03-02T09:18:11;43.55;;;26.08;;
27265;SDS011;14766;51.380;13.762;2024-03-02T09:20:39;43.88;;;26.38;;
27265;SDS011;14766;51.380;13.762;2024-03-02T09:23:06;44.55;;;25.92;;
27265;SDS011;14766;51.380;13.762;2024-03-02T09:25:33;46.40;;;26.80;;
27265;SDS011;14766;51.380;13.762;2024-03-02T09:28:00;48.90;;;28.50;;
27265;SDS011;14766;51.380;13.762;2024-03-02T09:30:30;45.40;;;27.42;;
27265;SDS011;14766;51.380;13.762;2024-03-02T09:32:58;44.80;;;26.90;;
27265;SDS011;14766;51.380;13.762;2024-03-02T09:35:28;43.45;;;26.35;;
27265;SDS011;14766;51.380;13.762;2024-03-02T09:37:55;40.00;;;24.50;;
27265;SDS011;14766;51.380;13.762;2024-03-02T09:40:22;40.58;;;25.90;;
27265;SDS011;14766;51.380;13.762;2024-03-02T09:42:49;42.97;;;24.67;;
27265;SDS011;14766;51.380;13.762;2024-03-02T09:45:23;47.78;;;26.83;;
27265;SDS011;14766;51.380;13.762;2024-03-02T09:47:51;44.55;;;25.40;;
27265;SDS011;14766;51.380;13.762;2024-03-02T09:50:18;42.55;;;25.33;;
27265;SDS011;14766;51.380;13.762;2024-03-02T09:52:48;44.65;;;26.00;;
27265;SDS011;14766;51.380;13.762;2024-03-02T09:55:18;43.38;;;25.60;;
27265;SDS011;14766;51.380;13.762;2024-03-02T09:57:46;44.38;;;25.83;;
27265;SDS011;14766;51.380;13.762;2024-03-02T10:00:15;45.95;;;26.23;;
27265;SDS011;14766;51.380;13.762;2024-03-02T10:02:42;46.40;;;26.35;;
27265;SDS011;14766;51.380;13.762;2024-03-02T10:05:10;42.67;;;25.88;;
27265;SDS011;14766;51.380;13.762;2024-03-02T10:07:40;39.38;;;23.05;;
27265;SDS011;14766;51.380;13.762;2024-03-02T10:10:14;41.40;;;23.27;;
27265;SDS011;14766;51.380;13.762;2024-03-02T10:12:42;35.65;;;21.85;;
27265;SDS011;14766;51.380;13.762;2024-03-02T10:15:09;37.17;;;20.60;;
27265;SDS011;14766;51.380;13.762;2024-03-02T10:17:36;36.65;;;21.00;;
27265;SDS011;14766;51.380;13.762;2024-03-02T10:20:21;34.75;;;20.48;;
27265;SDS011;14766;51.380;13.762;2024-03-02T10:22:50;32.60;;;20.02;;
27265;SDS011;14766;51.380;13.762;2024-03-02T10:25:30;32.83;;;20.15;;
27265;SDS011;14766;51.380;13.762;2024-03-02T10:28:16;40.00;;;23.20;;
27265;SDS011;14766;51.380;13.762;2024-03-02T10:30:47;40.42;;;23.98;;
27265;SDS011;14766;51.380;13.762;2024-03-02T10:33:17;40.22;;;22.35;;
27265;SDS011;14766;51.380;13.762;2024-03-02T10:35:44;38.50;;;21.45;;
27265;SDS011;14766;51.380;13.762;2024-03-02T10:38:11;36.92;;;21.48;;
27265;SDS011;14766;51.380;13.762;2024-03-02T10:40:39;34.55;;;20.50;;
27265;SDS011;14766;51.380;13.762;2024-03-02T10:43:06;29.70;;;18.33;;
27265;SDS011;14766;51.380;13.762;2024-03-02T10:45:34;29.52;;;17.75;;
27265;SDS011;14766;51.380;13.762;2024-03-02T10:48:02;30.17;;;16.05;;
27265;SDS011;14766;51.380;13.762;2024-03-02T10:50:29;24.55;;;14.88;;
27265;SDS011;14766;51.380;13.762;2024-03-02T10:52:57;23.95;;;14.45;;
27265;SDS011;14766;51.380;13.762;2024-03-02T10:55:24;21.55;;;12.30;;
27265;SDS011;14766;51.380;13.762;2024-03-02T10:57:55;19.73;;;12.43;;
27265;SDS011;14766;51.380;13.762;2024-03-02T11:00:25;19.48;;;11.75;;
27265;SDS011;14766;51.380;13.762;2024-03-02T11:03:04;19.63;;;11.93;;
27265;SDS011;14766;51.380;13.762;2024-03-02T11:05:33;17.30;;;11.35;;
27265;SDS011;14766;51.380;13.762;2024-03-02T11:08:07;18.15;;;12.00;;
27265;SDS011;14766;51.380;13.762;2024-03-02T11:10:50;20.58;;;11.45;;
27265;SDS011;14766;51.380;13.762;2024-03-02T11:13:22;16.92;;;10.20;;
27265;SDS011;14766;51.380;13.762;2024-03-02T11:18:23;14.30;;;8.93;;
27265;SDS011;14766;51.380;13.762;2024-03-02T11:20:51;13.77;;;8.98;;
27265;SDS011;14766;51.380;13.762;2024-03-02T11:23:18;15.60;;;9.65;;
27265;SDS011;14766;51.380;13.762;2024-03-02T11:26:16;13.02;;;9.30;;
27265;SDS011;14766;51.380;13.762;2024-03-02T11:28:45;12.02;;;8.13;;
27265;SDS011;14766;51.380;13.762;2024-03-02T11:31:12;11.48;;;7.05;;
27265;SDS011;14766;51.380;13.762;2024-03-02T11:33:43;11.90;;;7.30;;
27265;SDS011;14766;51.380;13.762;2024-03-02T11:36:10;10.65;;;7.35;;
27265;SDS011;14766;51.380;13.762;2024-03-02T11:38:38;12.95;;;8.15;;
27265;SDS011;14766;51.380;13.762;2024-03-02T11:41:09;12.05;;;7.20;;
27265;SDS011;14766;51.380;13.762;2024-03-02T11:43:38;10.73;;;6.70;;
27265;SDS011;14766;51.380;13.762;2024-03-02T11:46:09;12.90;;;7.03;;
27265;SDS011;14766;51.380;13.762;2024-03-02T11:48:38;11.60;;;6.03;;
27265;SDS011;14766;51.380;13.762;2024-03-02T11:51:06;9.45;;;6.40;;
27265;SDS011;14766;51.380;13.762;2024-03-02T11:53:33;8.85;;;5.68;;
27265;SDS011;14766;51.380;13.762;2024-03-02T11:56:05;7.85;;;5.40;;
27265;SDS011;14766;51.380;13.762;2024-03-02T11:58:36;9.05;;;5.75;;
27265;SDS011;14766;51.380;13.762;2024-03-02T12:01:06;8.10;;;5.30;;
27265;SDS011;14766;51.380;13.762;2024-03-02T12:03:34;9.85;;;5.65;;
27265;SDS011;14766;51.380;13.762;2024-03-02T12:06:02;10.20;;;5.57;;
27265;SDS011;14766;51.380;13.762;2024-03-02T12:08:29;10.43;;;6.75;;
27265;SDS011;14766;51.380;13.762;2024-03-02T12:10:58;10.38;;;6.68;;
27265;SDS011;14766;51.380;13.762;2024-03-02T12:13:31;9.55;;;6.47;;
27265;SDS011;14766;51.380;13.762;2024-03-02T12:15:59;12.90;;;7.72;;
27265;SDS011;14766;51.380;13.762;2024-03-02T12:18:27;15.00;;;9.15;;
27265;SDS011;14766;51.380;13.762;2024-03-02T12:20:56;10.63;;;7.70;;
27265;SDS011;14766;51.380;13.762;2024-03-02T12:23:25;15.10;;;8.85;;
27265;SDS011;14766;51.380;13.762;2024-03-02T12:25:52;14.38;;;8.77;;
27265;SDS011;14766;51.380;13.762;2024-03-02T12:28:19;15.77;;;9.18;;
27265;SDS011;14766;51.380;13.762;2024-03-02T12:30:47;15.52;;;9.68;;
27265;SDS011;14766;51.380;13.762;2024-03-02T12:33:16;14.57;;;9.55;;
27265;SDS011;14766;51.380;13.762;2024-03-02T12:35:43;15.95;;;10.00;;
27265;SDS011;14766;51.380;13.762;2024-03-02T12:38:10;14.65;;;9.27;;
27265;SDS011;14766;51.380;13.762;2024-03-02T12:40:38;15.55;;;10.52;;
27265;SDS011;14766;51.380;13.762;2024-03-02T12:43:05;15.57;;;9.70;;
27265;SDS011;14766;51.380;13.762;2024-03-02T12:45:34;16.15;;;9.93;;
27265;SDS011;14766;51.380;13.762;2024-03-02T12:48:01;17.63;;;10.20;;
27265;SDS011;14766;51.380;13.762;2024-03-02T12:50:30;17.92;;;10.40;;
27265;SDS011;14766;51.380;13.762;2024-03-02T12:52:58;13.02;;;9.23;;
27265;SDS011;14766;51.380;13.762;2024-03-02T12:55:26;17.85;;;10.15;;
27265;SDS011;14766;51.380;13.762;2024-03-02T12:57:55;17.02;;;9.68;;
27265;SDS011;14766;51.380;13.762;2024-03-02T13:00:22;16.65;;;9.63;;
27265;SDS011;14766;51.380;13.762;2024-03-02T13:02:50;14.07;;;8.80;;
27265;SDS011;14766;51.380;13.762;2024-03-02T13:05:18;15.95;;;8.90;;
27265;SDS011;14766;51.380;13.762;2024-03-02T13:07:47;13.82;;;7.90;;
27265;SDS011;14766;51.380;13.762;2024-03-02T13:10:16;13.55;;;8.25;;
27265;SDS011;14766;51.380;13.762;2024-03-02T13:12:45;17.08;;;9.30;;
27265;SDS011;14766;51.380;13.762;2024-03-02T13:15:12;14.90;;;8.38;;
27265;SDS011;14766;51.380;13.762;2024-03-02T13:17:46;15.35;;;9.57;;
27265;SDS011;14766;51.380;13.762;2024-03-02T13:20:14;14.48;;;8.77;;
27265;SDS011;14766;51.380;13.762;2024-03-02T13:22:41;16.38;;;9.18;;
27265;SDS011;14766;51.380;13.762;2024-03-02T13:25:09;17.38;;;10.57;;
27265;SDS011;14766;51.380;13.762;2024-03-02T13:27:38;16.25;;;9.65;;
27265;SDS011;14766;51.380;13.762;2024-03-02T13:30:06;16.88;;;9.57;;
27265;SDS011;14766;51.380;13.762;2024-03-02T13:32:36;18.45;;;10.88;;
27265;SDS011;14766;51.380;13.762;2024-03-02T13:35:04;19.67;;;11.93;;
27265;SDS011;14766;51.380;13.762;2024-03-02T13:37:32;17.63;;;11.00;;
27265;SDS011;14766;51.380;13.762;2024-03-02T13:39:59;19.88;;;11.23;;
27265;SDS011;14766;51.380;13.762;2024-03-02T13:42:26;19.90;;;11.02;;
27265;SDS011;14766;51.380;13.762;2024-03-02T13:44:54;19.75;;;11.07;;
27265;SDS011;14766;51.380;13.762;2024-03-02T13:47:21;17.52;;;10.93;;
27265;SDS011;14766;51.380;13.762;2024-03-02T13:49:48;18.58;;;11.02;;
27265;SDS011;14766;51.380;13.762;2024-03-02T13:52:15;17.45;;;11.20;;
27265;SDS011;14766;51.380;13.762;2024-03-02T13:54:47;22.52;;;12.43;;
27265;SDS011;14766;51.380;13.762;2024-03-02T13:57:14;20.20;;;12.75;;
27265;SDS011;14766;51.380;13.762;2024-03-02T13:59:43;19.65;;;11.35;;
27265;SDS011;14766;51.380;13.762;2024-03-02T14:02:11;19.00;;;11.98;;
27265;SDS011;14766;51.380;13.762;2024-03-02T14:04:39;17.05;;;10.45;;
27265;SDS011;14766;51.380;13.762;2024-03-02T14:07:06;17.73;;;10.98;;
27265;SDS011;14766;51.380;13.762;2024-03-02T14:09:34;17.30;;;11.98;;
27265;SDS011;14766;51.380;13.762;2024-03-02T14:12:03;14.60;;;10.15;;
27265;SDS011;14766;51.380;13.762;2024-03-02T14:14:31;20.27;;;11.23;;
27265;SDS011;14766;51.380;13.762;2024-03-02T14:16:59;16.90;;;10.30;;
27265;SDS011;14766;51.380;13.762;2024-03-02T14:19:30;18.58;;;10.05;;
27265;SDS011;14766;51.380;13.762;2024-03-02T14:21:57;16.25;;;9.73;;
27265;SDS011;14766;51.380;13.762;2024-03-02T14:24:26;14.23;;;9.00;;
27265;SDS011;14766;51.380;13.762;2024-03-02T14:26:56;13.45;;;8.98;;
27265;SDS011;14766;51.380;13.762;2024-03-02T14:29:45;14.93;;;9.05;;